Time;durP1;ratioP1;P1;durP2;ratioP2;P2;SDS_P1;SDS_P2;PMS_P1;PMS_P2;Temp;Humidity;BMP_temperature;BMP_pressure;BME280_temperature;BME280_humidity;BME280_pressure;Samples;Min_cycle;Max_cycle;Signal;HPM_P1;HPM_P2
2021/12/11 00:00:57;;;;;;;215.90;108.90;;;;;;;;;;5045929;28;20189;-75
2021/12/11 00:03:24;;;;;;;222.75;106.13;;;;;;;;;;5056160;28;20021;-75
2021/12/11 00:05:56;;;;;;;176.23;82.13;;;;;;;;;;5055949;28;20034;-75
2021/12/11 00:08:25;;;;;;;181.00;91.13;;;;;;;;;;5054381;28;20391;-75
2021/12/11 00:10:54;;;;;;;145.75;75.55;;;;;;;;;;5056088;28;20043;-75
2021/12/11 00:13:25;;;;;;;118.47;64.90;;;;;;;;;;5072504;28;20035;-76
2021/12/11 00:15:51;;;;;;;115.10;65.07;;;;;;;;;;5056610;28;20639;-76
2021/12/11 00:18:27;;;;;;;134.23;72.65;;;;;;;;;;5056260;28;20439;-75
2021/12/11 00:21:01;;;;;;;162.15;91.47;;;;;;;;;;5070962;28;20020;-75
2021/12/11 00:23:51;;;;;;;136.55;77.00;;;;;;;;;;5055997;28;20109;-75
2021/12/11 00:26:22;;;;;;;149.63;82.93;;;;;;;;;;5055980;28;20070;-76
2021/12/11 00:28:49;;;;;;;222.73;124.07;;;;;;;;;;5070989;28;20398;-74
2021/12/11 00:31:15;;;;;;;221.55;119.65;;;;;;;;;;5054110;28;20037;-76
2021/12/11 00:33:40;;;;;;;217.18;119.95;;;;;;;;;;5070728;28;20020;-76
2021/12/11 00:36:11;;;;;;;201.15;96.95;;;;;;;;;;5055539;28;20028;-75
2021/12/11 00:38:37;;;;;;;82.57;45.90;;;;;;;;;;5055358;28;20024;-75
2021/12/11 00:41:04;;;;;;;113.50;63.88;;;;;;;;;;5055501;28;20024;-76
2021/12/11 00:43:33;;;;;;;102.28;57.38;;;;;;;;;;5054160;28;20024;-75
2021/12/11 00:45:59;;;;;;;97.95;55.53;;;;;;;;;;5055490;28;20024;-76
2021/12/11 00:48:26;;;;;;;109.45;62.00;;;;;;;;;;5055157;28;20560;-75
2021/12/11 00:50:59;;;;;;;140.38;77.43;;;;;;;;;;5055481;28;20082;-75
2021/12/11 00:53:29;;;;;;;87.40;50.67;;;;;;;;;;5070762;28;20366;-75
2021/12/11 00:55:56;;;;;;;54.70;30.33;;;;;;;;;;5055445;28;20024;-76
2021/12/11 00:58:23;;;;;;;109.88;59.38;;;;;;;;;;5070602;28;20570;-76
2021/12/11 01:01:04;;;;;;;86.53;44.92;;;;;;;;;;5055263;28;20028;-75
2021/12/11 01:03:31;;;;;;;47.13;27.30;;;;;;;;;;5055107;28;20100;-75
2021/12/11 01:05:58;;;;;;;38.40;24.05;;;;;;;;;;5055398;28;20025;-74
2021/12/11 01:08:32;;;;;;;43.55;25.58;;;;;;;;;;5053569;28;20039;-74
2021/12/11 01:11:10;;;;;;;59.00;29.80;;;;;;;;;;5055018;28;20086;-75
2021/12/11 01:13:41;;;;;;;44.80;24.45;;;;;;;;;;5055095;28;20027;-75
2021/12/11 01:16:12;;;;;;;45.65;26.73;;;;;;;;;;5054573;28;20020;-74
2021/12/11 01:18:40;;;;;;;43.42;24.88;;;;;;;;;;5053651;28;20040;-76
2021/12/11 01:21:25;;;;;;;63.25;37.65;;;;;;;;;;5054771;28;20032;-76
2021/12/11 01:26:24;;;;;;;54.72;31.83;;;;;;;;;;5054953;28;20483;-74
2021/12/11 01:28:50;;;;;;;46.67;27.13;;;;;;;;;;5055751;28;20024;-75
2021/12/11 01:31:16;;;;;;;74.95;41.33;;;;;;;;;;5054500;28;20024;-75
2021/12/11 01:33:42;;;;;;;56.65;33.65;;;;;;;;;;5054624;28;20082;-75
2021/12/11 01:36:08;;;;;;;52.65;31.48;;;;;;;;;;5055911;28;20431;-74
2021/12/11 01:38:34;;;;;;;51.22;26.77;;;;;;;;;;5054485;28;20085;-75
2021/12/11 01:41:04;;;;;;;38.25;23.98;;;;;;;;;;5053310;28;20024;-74
2021/12/11 01:43:31;;;;;;;43.25;25.10;;;;;;;;;;5052621;28;20059;-74
2021/12/11 01:45:57;;;;;;;63.55;33.42;;;;;;;;;;5055133;28;20072;-75
2021/12/11 01:48:43;;;;;;;69.60;37.92;;;;;;;;;;5054576;28;20052;-75
2021/12/11 01:51:15;;;;;;;48.10;29.20;;;;;;;;;;5053858;28;20033;-75
2021/12/11 01:53:43;;;;;;;56.20;31.25;;;;;;;;;;5069861;28;20029;-76
2021/12/11 01:56:11;;;;;;;42.97;26.35;;;;;;;;;;5053285;28;20455;-76
2021/12/11 01:58:39;;;;;;;37.95;23.42;;;;;;;;;;5069083;28;20049;-75
2021/12/11 02:01:09;;;;;;;48.63;27.55;;;;;;;;;;5053504;28;20064;-75
2021/12/11 02:03:35;;;;;;;81.20;29.52;;;;;;;;;;5053406;28;20024;-74
2021/12/11 02:06:00;;;;;;;289.85;46.08;;;;;;;;;;5055499;28;20036;-75
2021/12/11 02:08:31;;;;;;;181.70;41.97;;;;;;;;;;5053371;28;20489;-76
2021/12/11 02:11:21;;;;;;;324.55;45.03;;;;;;;;;;5055464;28;20035;-75
2021/12/11 02:13:54;;;;;;;85.40;28.23;;;;;;;;;;5046299;28;20032;-76
2021/12/11 02:16:22;;;;;;;216.20;37.10;;;;;;;;;;5069891;28;20471;-74
2021/12/11 02:18:50;;;;;;;188.43;31.95;;;;;;;;;;5052277;28;20133;-74
2021/12/11 02:21:26;;;;;;;237.90;36.05;;;;;;;;;;5052996;28;20052;-74
2021/12/11 02:23:57;;;;;;;52.30;24.15;;;;;;;;;;5054437;28;20017;-74
2021/12/11 02:26:23;;;;;;;43.30;19.48;;;;;;;;;;5052630;28;20028;-74
2021/12/11 02:28:56;;;;;;;80.35;26.90;;;;;;;;;;5054160;28;20119;-74
2021/12/11 02:31:30;;;;;;;160.68;31.17;;;;;;;;;;5054435;28;20020;-74
2021/12/11 02:34:07;;;;;;;94.90;27.73;;;;;;;;;;5053733;28;20024;-74
2021/12/11 02:36:36;;;;;;;132.90;38.33;;;;;;;;;;5054129;28;20025;-75
2021/12/11 02:39:30;;;;;;;252.02;39.65;;;;;;;;;;5054395;28;20487;-74
2021/12/11 02:42:01;;;;;;;188.85;44.03;;;;;;;;;;5035746;28;20033;-74
2021/12/11 02:44:31;;;;;;;279.70;44.15;;;;;;;;;;5035919;28;20883;-75
2021/12/11 02:47:18;;;;;;;111.82;31.38;;;;;;;;;;5053686;28;20039;-74
2021/12/11 02:49:47;;;;;;;95.80;26.15;;;;;;;;;;5054586;28;20031;-74
2021/12/11 02:52:18;;;;;;;341.75;35.75;;;;;;;;;;5053447;28;20455;-75
2021/12/11 02:54:51;;;;;;;445.77;43.72;;;;;;;;;;5053448;28;20025;-76
2021/12/11 02:57:19;;;;;;;173.45;26.15;;;;;;;;;;5056829;28;20048;-74
2021/12/11 02:59:46;;;;;;;333.50;34.85;;;;;;;;;;5057983;28;20567;-74
2021/12/11 03:02:14;;;;;;;312.95;35.03;;;;;;;;;;5057015;28;20021;-75
2021/12/11 03:04:48;;;;;;;141.40;28.17;;;;;;;;;;5039392;28;20074;-76
2021/12/11 03:07:15;;;;;;;332.63;36.42;;;;;;;;;;5057480;28;20483;-75
2021/12/11 03:09:43;;;;;;;173.48;26.90;;;;;;;;;;5057199;28;20024;-76
2021/12/11 03:12:10;;;;;;;172.75;26.25;;;;;;;;;;5038841;28;20116;-74
2021/12/11 03:14:36;;;;;;;353.20;42.63;;;;;;;;;;5058474;28;20016;-75
2021/12/11 03:17:01;;;;;;;65.30;22.05;;;;;;;;;;5058459;28;20118;-76
2021/12/11 03:19:29;;;;;;;159.13;21.80;;;;;;;;;;5057210;28;20119;-75
2021/12/11 03:21:56;;;;;;;64.25;21.10;;;;;;;;;;5039177;28;20024;-75
2021/12/11 03:24:21;;;;;;;142.98;24.13;;;;;;;;;;5057586;28;20467;-75
2021/12/11 03:26:48;;;;;;;261.00;30.92;;;;;;;;;;5057268;28;20031;-75
2021/12/11 03:29:14;;;;;;;58.75;20.02;;;;;;;;;;5056496;28;20044;-75
2021/12/11 03:31:39;;;;;;;47.58;19.00;;;;;;;;;;5056928;28;20032;-74
2021/12/11 03:34:07;;;;;;;62.63;20.63;;;;;;;;;;5057670;28;20349;-75
2021/12/11 03:36:33;;;;;;;33.65;15.82;;;;;;;;;;5038555;28;20871;-75
2021/12/11 03:39:00;;;;;;;26.83;14.55;;;;;;;;;;5039052;28;20029;-75
2021/12/11 03:41:27;;;;;;;44.40;15.23;;;;;;;;;;5056533;28;20024;-74
2021/12/11 03:43:52;;;;;;;25.23;15.10;;;;;;;;;;5056996;28;20604;-76
2021/12/11 03:46:18;;;;;;;47.97;20.70;;;;;;;;;;5038533;28;20024;-74
2021/12/11 03:48:47;;;;;;;68.05;34.95;;;;;;;;;;5038717;28;20170;-75
2021/12/11 03:51:15;;;;;;;83.65;41.75;;;;;;;;;;5056332;28;20025;-76
2021/12/11 03:53:41;;;;;;;79.15;39.75;;;;;;;;;;5057683;28;20020;-76
2021/12/11 03:56:08;;;;;;;61.92;31.33;;;;;;;;;;5038412;28;20033;-76
2021/12/11 03:58:34;;;;;;;71.95;31.58;;;;;;;;;;5055829;28;20479;-74
2021/12/11 04:01:08;;;;;;;71.28;37.40;;;;;;;;;;5038332;28;20115;-74
2021/12/11 04:03:35;;;;;;;242.95;87.85;;;;;;;;;;5038033;28;20020;-75
2021/12/11 04:06:04;;;;;;;98.60;46.70;;;;;;;;;;5038476;28;20036;-76
2021/12/11 04:08:34;;;;;;;132.73;37.45;;;;;;;;;;5037638;28;20032;-76
2021/12/11 04:10:59;;;;;;;60.33;32.10;;;;;;;;;;5037645;28;20422;-75
2021/12/11 04:13:24;;;;;;;91.25;42.75;;;;;;;;;;5037956;28;20024;-75
2021/12/11 04:15:51;;;;;;;109.20;46.88;;;;;;;;;;5055776;28;20030;-75
2021/12/11 04:18:17;;;;;;;87.32;41.22;;;;;;;;;;5055640;28;20050;-75
2021/12/11 04:20:43;;;;;;;78.07;35.35;;;;;;;;;;5055545;28;20020;-75
2021/12/11 04:23:13;;;;;;;73.13;34.08;;;;;;;;;;5055973;28;20031;-76
2021/12/11 04:25:40;;;;;;;62.75;35.03;;;;;;;;;;5037456;28;20426;-76
2021/12/11 04:28:06;;;;;;;67.07;35.47;;;;;;;;;;5037774;28;20119;-75
2021/12/11 04:30:31;;;;;;;57.25;31.67;;;;;;;;;;5037500;28;20028;-76
2021/12/11 04:32:57;;;;;;;59.05;33.20;;;;;;;;;;5055260;28;20032;-76
2021/12/11 04:35:27;;;;;;;66.28;31.75;;;;;;;;;;5037506;28;20024;-77
2021/12/11 04:37:53;;;;;;;42.50;24.27;;;;;;;;;;5055532;28;20081;-76
2021/12/11 04:40:25;;;;;;;62.22;27.17;;;;;;;;;;5037035;28;20036;-77
2021/12/11 04:43:05;;;;;;;62.65;33.10;;;;;;;;;;5056696;28;20025;-77
2021/12/11 04:45:35;;;;;;;59.92;27.25;;;;;;;;;;5037521;28;20280;-77
2021/12/11 04:48:13;;;;;;;58.22;31.48;;;;;;;;;;5037395;28;20024;-78
2021/12/11 04:51:11;;;;;;;54.17;26.98;;;;;;;;;;5037462;28;20393;-79
2021/12/11 05:05:16;;;;;;;56.22;34.13;;;;;;;;;;5055391;28;20035;-78
2021/12/11 05:07:23;;;;;;;52.55;35.17;;;;;;;;;;5046798;28;20094;-77
2021/12/11 05:10:15;;;;;;;49.00;28.05;;;;;;;;;;5037035;28;20052;-76
2021/12/11 05:12:41;;;;;;;62.53;35.35;;;;;;;;;;5054928;28;20028;-76
2021/12/11 05:15:12;;;;;;;60.90;34.92;;;;;;;;;;5054875;28;20035;-77
2021/12/11 05:17:38;;;;;;;59.88;34.78;;;;;;;;;;5036487;28;20048;-77
2021/12/11 05:20:05;;;;;;;79.38;41.55;;;;;;;;;;5054324;28;20105;-77
2021/12/11 05:22:30;;;;;;;77.72;45.03;;;;;;;;;;5054268;28;20016;-79
2021/12/11 05:24:56;;;;;;;57.72;33.30;;;;;;;;;;5054592;28;20036;-80
2021/12/11 05:27:21;;;;;;;50.33;30.85;;;;;;;;;;5036927;28;20090;-80
2021/12/11 05:29:47;;;;;;;45.97;28.02;;;;;;;;;;5054343;28;20430;-77
2021/12/11 05:32:15;;;;;;;42.13;26.80;;;;;;;;;;5036767;28;20143;-78
2021/12/11 05:34:41;;;;;;;37.28;24.40;;;;;;;;;;5054108;28;20477;-79
2021/12/11 05:37:06;;;;;;;28.33;19.33;;;;;;;;;;5054744;28;20025;-79
2021/12/11 05:39:32;;;;;;;27.35;18.23;;;;;;;;;;5036856;28;20292;-78
2021/12/11 05:41:57;;;;;;;18.58;12.73;;;;;;;;;;5036434;28;20025;-76
2021/12/11 05:44:23;;;;;;;18.90;13.07;;;;;;;;;;5054809;28;20060;-79
2021/12/11 05:46:50;;;;;;;16.98;11.02;;;;;;;;;;5036639;28;20067;-77
2021/12/11 05:49:15;;;;;;;17.67;11.68;;;;;;;;;;5054302;28;20107;-77
2021/12/11 05:51:42;;;;;;;15.63;11.25;;;;;;;;;;5036655;28;20189;-78
2021/12/11 05:54:10;;;;;;;23.55;14.90;;;;;;;;;;5054693;28;20025;-78
2021/12/11 05:56:38;;;;;;;16.73;11.85;;;;;;;;;;5054711;28;20470;-79
2021/12/11 05:59:04;;;;;;;16.98;10.00;;;;;;;;;;5037982;28;20111;-79
2021/12/11 06:01:32;;;;;;;54.25;32.95;;;;;;;;;;5054723;28;20521;-79
2021/12/11 06:04:00;;;;;;;47.00;30.08;;;;;;;;;;5054263;28;20103;-84
2021/12/11 06:06:25;;;;;;;20.70;12.88;;;;;;;;;;5054603;28;20848;-77
2021/12/11 06:08:50;;;;;;;37.28;22.15;;;;;;;;;;5036498;28;20111;-79
2021/12/11 06:11:16;;;;;;;78.90;41.20;;;;;;;;;;5055097;28;20032;-78
2021/12/11 06:13:42;;;;;;;61.58;33.40;;;;;;;;;;5036110;28;20024;-79
2021/12/11 06:16:08;;;;;;;32.00;16.67;;;;;;;;;;5054353;28;20024;-80
2021/12/11 06:18:33;;;;;;;18.55;10.95;;;;;;;;;;5036224;28;20067;-79
2021/12/11 06:20:59;;;;;;;22.33;14.23;;;;;;;;;;5036427;28;20474;-79
2021/12/11 06:23:24;;;;;;;31.45;20.80;;;;;;;;;;5036200;28;20689;-79
2021/12/11 06:25:50;;;;;;;23.55;18.42;;;;;;;;;;5054330;28;20460;-76
2021/12/11 06:28:16;;;;;;;24.63;17.77;;;;;;;;;;5036488;28;20542;-78
2021/12/11 06:30:42;;;;;;;16.30;14.60;;;;;;;;;;5039772;28;20074;-77
2021/12/11 06:33:07;;;;;;;10.05;9.02;;;;;;;;;;5059181;28;20096;-78
2021/12/11 06:35:32;;;;;;;11.38;9.10;;;;;;;;;;5039939;28;20474;-79
2021/12/11 06:37:58;;;;;;;35.92;23.52;;;;;;;;;;5039748;28;20036;-77
2021/12/11 06:40:25;;;;;;;38.63;23.38;;;;;;;;;;5040078;28;20031;-77
2021/12/11 06:42:51;;;;;;;53.00;36.85;;;;;;;;;;5040523;28;20027;-80
2021/12/11 06:45:18;;;;;;;40.55;28.63;;;;;;;;;;5039363;28;20051;-79
2021/12/11 06:47:43;;;;;;;47.72;31.75;;;;;;;;;;5041071;28;20031;-80
2021/12/11 06:50:08;;;;;;;35.30;24.30;;;;;;;;;;5058172;28;20051;-81
2021/12/11 06:52:34;;;;;;;142.30;78.30;;;;;;;;;;5057898;28;20025;-80
2021/12/11 06:54:59;;;;;;;34.45;22.85;;;;;;;;;;5058411;28;20688;-78
2021/12/11 06:57:25;;;;;;;36.88;24.98;;;;;;;;;;5058120;28;20049;-78
2021/12/11 06:59:50;;;;;;;39.28;27.20;;;;;;;;;;5057273;28;20090;-79
2021/12/11 07:02:17;;;;;;;44.90;30.10;;;;;;;;;;5036852;28;20035;-78
2021/12/11 07:04:42;;;;;;;23.92;16.48;;;;;;;;;;5051372;28;20025;-81
2021/12/11 07:07:07;;;;;;;32.83;22.60;;;;;;;;;;5019425;28;20070;-78
2021/12/11 07:09:33;;;;;;;66.13;42.22;;;;;;;;;;5038064;28;20849;-82
2021/12/11 07:11:59;;;;;;;69.60;45.28;;;;;;;;;;5019465;28;20464;-79
2021/12/11 07:14:27;;;;;;;101.22;59.83;;;;;;;;;;5046056;28;20060;-83
2021/12/11 07:16:52;;;;;;;196.40;116.07;;;;;;;;;;5036881;28;20021;-79
2021/12/11 07:19:18;;;;;;;119.30;70.07;;;;;;;;;;5019346;28;20669;-79
2021/12/11 07:21:46;;;;;;;120.63;61.38;;;;;;;;;;5019051;28;20017;-78
2021/12/11 07:24:12;;;;;;;40.08;22.25;;;;;;;;;;5037773;28;20027;-80
2021/12/11 07:26:38;;;;;;;54.17;31.95;;;;;;;;;;5018891;28;20031;-80
2021/12/11 07:29:05;;;;;;;48.60;30.70;;;;;;;;;;5037109;28;20360;-79
2021/12/11 07:31:31;;;;;;;63.78;37.35;;;;;;;;;;5037127;28;20044;-80
2021/12/11 07:33:57;;;;;;;71.22;42.78;;;;;;;;;;5018476;28;20391;-80
2021/12/11 07:36:23;;;;;;;44.33;27.60;;;;;;;;;;5018831;28;20068;-80
2021/12/11 07:38:48;;;;;;;45.05;26.95;;;;;;;;;;5036857;28;20052;-80
2021/12/11 07:41:14;;;;;;;157.75;84.00;;;;;;;;;;5034944;28;20145;-80
2021/12/11 07:43:41;;;;;;;160.75;87.07;;;;;;;;;;5019279;28;20032;-79
2021/12/11 07:46:07;;;;;;;183.82;99.65;;;;;;;;;;5018407;28;20040;-79
2021/12/11 07:48:32;;;;;;;201.43;117.00;;;;;;;;;;5036455;28;20932;-80
2021/12/11 07:50:58;;;;;;;133.82;78.70;;;;;;;;;;5018627;28;20024;-80
2021/12/11 07:53:24;;;;;;;111.35;61.50;;;;;;;;;;5018147;28;20025;-80
2021/12/11 07:55:51;;;;;;;67.78;42.28;;;;;;;;;;5036486;28;20028;-79
2021/12/11 07:58:17;;;;;;;100.22;56.47;;;;;;;;;;5052849;28;20041;-81
2021/12/11 08:00:44;;;;;;;137.00;73.03;;;;;;;;;;5056287;28;20158;-80
2021/12/11 08:03:10;;;;;;;114.28;63.13;;;;;;;;;;5037813;28;20043;-80
2021/12/11 08:05:36;;;;;;;136.75;75.20;;;;;;;;;;5038307;28;20052;-80
2021/12/11 08:08:03;;;;;;;96.00;51.80;;;;;;;;;;5037985;28;20056;-80
2021/12/11 08:10:30;;;;;;;61.65;37.05;;;;;;;;;;5038088;28;20409;-79
2021/12/11 08:12:56;;;;;;;73.13;43.60;;;;;;;;;;5037690;28;20024;-78
2021/12/11 08:15:21;;;;;;;91.78;51.92;;;;;;;;;;5037917;28;20115;-78
2021/12/11 08:17:53;;;;;;;102.97;62.35;;;;;;;;;;5056056;28;20190;-78
2021/12/11 08:20:19;;;;;;;53.85;36.25;;;;;;;;;;5038215;28;20032;-79
2021/12/11 08:22:44;;;;;;;50.30;32.47;;;;;;;;;;5038054;28;20052;-80
2021/12/11 08:25:10;;;;;;;49.45;35.60;;;;;;;;;;5040260;28;20048;-77
2021/12/11 08:27:36;;;;;;;101.00;60.22;;;;;;;;;;5017990;28;20555;-78
2021/12/11 08:30:02;;;;;;;94.97;54.60;;;;;;;;;;5035487;28;20115;-78
2021/12/11 08:32:27;;;;;;;68.25;40.53;;;;;;;;;;5035931;28;20025;-79
2021/12/11 08:34:52;;;;;;;79.22;45.80;;;;;;;;;;5037018;28;20524;-79
2021/12/11 08:37:19;;;;;;;150.55;95.82;;;;;;;;;;5017305;28;20028;-79
2021/12/11 08:39:45;;;;;;;127.15;71.22;;;;;;;;;;5036648;28;20147;-80
2021/12/11 08:42:13;;;;;;;107.35;62.63;;;;;;;;;;5031813;28;20056;-79
2021/12/11 08:44:48;;;;;;;96.60;62.20;;;;;;;;;;5017773;28;20818;-79
2021/12/11 08:47:13;;;;;;;106.65;67.20;;;;;;;;;;5035793;28;20357;-78
2021/12/11 08:49:43;;;;;;;70.32;45.95;;;;;;;;;;5017744;28;20036;-79
2021/12/11 08:52:15;;;;;;;85.72;57.42;;;;;;;;;;5017499;28;20044;-82
2021/12/11 08:54:40;;;;;;;111.55;73.03;;;;;;;;;;5017045;28;20078;-77
2021/12/11 08:57:07;;;;;;;83.13;56.53;;;;;;;;;;5023406;28;20143;-78
2021/12/11 08:59:35;;;;;;;83.63;56.05;;;;;;;;;;5037194;28;20154;-79
2021/12/11 09:02:08;;;;;;;326.10;193.23;;;;;;;;;;5055339;28;20073;-78
2021/12/11 09:04:37;;;;;;;207.88;127.70;;;;;;;;;;5037479;28;20107;-79
2021/12/11 09:07:08;;;;;;;157.27;96.90;;;;;;;;;;5053491;28;20036;-79
2021/12/11 09:09:36;;;;;;;111.88;67.90;;;;;;;;;;5055235;28;20399;-79
2021/12/11 09:12:01;;;;;;;115.20;75.20;;;;;;;;;;5055455;28;20092;-80
2021/12/11 09:14:30;;;;;;;86.43;55.67;;;;;;;;;;5055406;28;20482;-79
2021/12/11 09:17:00;;;;;;;95.28;63.92;;;;;;;;;;5055062;28;20024;-80
2021/12/11 09:19:33;;;;;;;98.63;64.72;;;;;;;;;;5036962;28;20387;-79
2021/12/11 09:22:02;;;;;;;112.35;81.80;;;;;;;;;;5036992;28;20547;-80
2021/12/11 09:24:30;;;;;;;86.35;61.85;;;;;;;;;;5054938;28;20016;-78
2021/12/11 09:26:58;;;;;;;97.78;73.53;;;;;;;;;;5054323;28;20032;-80
2021/12/11 09:29:26;;;;;;;140.18;95.90;;;;;;;;;;5051571;28;20356;-83
2021/12/11 09:31:56;;;;;;;183.82;123.25;;;;;;;;;;5036729;28;20033;-80
2021/12/11 09:34:24;;;;;;;227.27;138.52;;;;;;;;;;5037513;28;20047;-79
2021/12/11 09:36:52;;;;;;;145.40;96.55;;;;;;;;;;5036589;28;20467;-79
2021/12/11 09:39:25;;;;;;;101.72;67.50;;;;;;;;;;5036892;28;20389;-79
2021/12/11 09:41:50;;;;;;;114.13;74.07;;;;;;;;;;5054468;28;20040;-79
2021/12/11 09:44:18;;;;;;;299.48;176.38;;;;;;;;;;5036300;28;20498;-78
2021/12/11 09:46:52;;;;;;;260.23;150.00;;;;;;;;;;5036187;28;20024;-79
2021/12/11 09:49:20;;;;;;;294.52;178.23;;;;;;;;;;5054506;28;20035;-78
2021/12/11 09:51:47;;;;;;;224.95;139.40;;;;;;;;;;5055642;28;20116;-78
2021/12/11 09:54:15;;;;;;;291.23;165.20;;;;;;;;;;5036429;28;20047;-78
2021/12/11 09:57:02;;;;;;;226.60;130.77;;;;;;;;;;5036320;28;20044;-78
2021/12/11 09:59:29;;;;;;;183.57;114.80;;;;;;;;;;5037421;28;20086;-80
2021/12/11 10:01:56;;;;;;;249.20;158.82;;;;;;;;;;5054932;28;20090;-77
2021/12/11 10:04:31;;;;;;;217.60;137.50;;;;;;;;;;5036832;28;20085;-79
2021/12/11 10:09:25;;;;;;;168.65;115.50;;;;;;;;;;5058053;28;20146;-80
2021/12/11 10:11:53;;;;;;;153.45;102.53;;;;;;;;;;5040338;28;20470;-81
2021/12/11 10:14:20;;;;;;;106.38;77.60;;;;;;;;;;5058424;28;20021;-80
2021/12/11 10:16:48;;;;;;;183.50;119.63;;;;;;;;;;5054689;28;20079;-81
2021/12/11 10:19:14;;;;;;;188.30;119.90;;;;;;;;;;5058829;28;20028;-77
2021/12/11 10:21:43;;;;;;;224.77;123.20;;;;;;;;;;5058658;28;20025;-80
2021/12/11 10:24:11;;;;;;;162.98;107.18;;;;;;;;;;5039769;28;20020;-80
2021/12/11 10:26:37;;;;;;;127.40;88.30;;;;;;;;;;5062579;28;20020;-82
2021/12/11 10:29:05;;;;;;;87.70;61.10;;;;;;;;;;5042099;28;20405;-83
2021/12/11 10:31:34;;;;;;;87.72;59.75;;;;;;;;;;5037947;28;20074;-76
2021/12/11 10:34:00;;;;;;;154.07;95.35;;;;;;;;;;5067055;28;20446;-77
2021/12/11 10:36:27;;;;;;;240.48;114.18;;;;;;;;;;5037542;28;20024;-76
2021/12/11 10:38:54;;;;;;;127.40;58.00;;;;;;;;;;5051472;28;20038;-76
2021/12/11 10:41:20;;;;;;;88.82;59.60;;;;;;;;;;5079263;28;20374;-77
2021/12/11 10:43:47;;;;;;;98.57;68.38;;;;;;;;;;5063286;28;20029;-77
2021/12/11 10:46:14;;;;;;;119.13;81.85;;;;;;;;;;5050545;28;20463;-77
2021/12/11 10:48:42;;;;;;;101.75;70.60;;;;;;;;;;5047565;28;20035;-77
2021/12/11 10:51:07;;;;;;;101.75;66.85;;;;;;;;;;5041577;28;20032;-77
2021/12/11 10:53:34;;;;;;;56.72;41.80;;;;;;;;;;5061035;28;20090;-76
2021/12/11 10:56:01;;;;;;;151.23;80.20;;;;;;;;;;5063026;28;20035;-77
2021/12/11 10:58:29;;;;;;;207.30;118.30;;;;;;;;;;5050457;28;20095;-79
2021/12/11 11:00:57;;;;;;;232.00;113.75;;;;;;;;;;5038046;28;20036;-78
2021/12/11 11:03:23;;;;;;;114.55;60.25;;;;;;;;;;5036159;28;21075;-81
2021/12/11 11:05:49;;;;;;;42.55;25.73;;;;;;;;;;5036531;28;20685;-80
2021/12/11 11:08:15;;;;;;;122.97;75.85;;;;;;;;;;5036433;28;20566;-80
2021/12/11 11:10:43;;;;;;;91.03;56.55;;;;;;;;;;5035735;28;20104;-80
2021/12/11 11:13:10;;;;;;;129.38;72.22;;;;;;;;;;5041180;28;20039;-80
2021/12/11 11:15:37;;;;;;;118.50;67.60;;;;;;;;;;5037890;28;20028;-79
2021/12/11 11:18:05;;;;;;;98.55;57.58;;;;;;;;;;5036339;28;20112;-79
2021/12/11 11:20:35;;;;;;;76.57;49.60;;;;;;;;;;5057236;28;20025;-81
2021/12/11 11:23:01;;;;;;;100.20;57.22;;;;;;;;;;5038234;28;20082;-80
2021/12/11 11:25:29;;;;;;;129.38;73.70;;;;;;;;;;5054242;28;20304;-79
2021/12/11 11:27:57;;;;;;;152.13;85.72;;;;;;;;;;5054470;28;20028;-80
2021/12/11 11:30:27;;;;;;;114.15;60.15;;;;;;;;;;5055997;28;20471;-80
2021/12/11 11:32:54;;;;;;;89.07;48.00;;;;;;;;;;5038669;28;20582;-79
2021/12/11 11:35:22;;;;;;;27.73;17.10;;;;;;;;;;5056693;28;20025;-79
2021/12/11 11:37:49;;;;;;;38.75;24.35;;;;;;;;;;5040320;28;20519;-81
2021/12/11 11:40:19;;;;;;;105.97;55.25;;;;;;;;;;5038330;28;20036;-80
2021/12/11 11:42:44;;;;;;;75.97;42.50;;;;;;;;;;5040147;28;20031;-81
2021/12/11 11:45:11;;;;;;;122.28;59.85;;;;;;;;;;5038871;28;20033;-79
2021/12/11 11:47:36;;;;;;;183.10;93.75;;;;;;;;;;5038165;28;20017;-80
2021/12/11 11:50:03;;;;;;;94.80;49.88;;;;;;;;;;5038114;28;20032;-80
2021/12/11 11:52:30;;;;;;;55.38;31.60;;;;;;;;;;5056691;28;20021;-79
2021/12/11 11:54:57;;;;;;;68.03;42.33;;;;;;;;;;5057654;28;20081;-79
2021/12/11 11:57:25;;;;;;;137.20;93.15;;;;;;;;;;5056494;28;20094;-80
2021/12/11 11:59:53;;;;;;;96.80;60.50;;;;;;;;;;5038443;28;20547;-80
2021/12/11 12:02:20;;;;;;;93.32;53.80;;;;;;;;;;5055091;28;20029;-79
2021/12/11 12:04:47;;;;;;;74.70;44.88;;;;;;;;;;5038652;28;20032;-81
2021/12/11 12:07:13;;;;;;;39.17;26.50;;;;;;;;;;5054825;28;20052;-77
2021/12/11 12:09:41;;;;;;;28.10;21.20;;;;;;;;;;5056411;28;20048;-79
2021/12/11 12:12:09;;;;;;;34.25;24.77;;;;;;;;;;5038303;28;20085;-78
2021/12/11 12:14:35;;;;;;;43.58;28.70;;;;;;;;;;5038104;28;20025;-78
2021/12/11 12:17:00;;;;;;;40.83;28.00;;;;;;;;;;5037948;28;20085;-80
2021/12/11 12:19:26;;;;;;;43.55;30.67;;;;;;;;;;5055936;28;20024;-80
2021/12/11 12:21:53;;;;;;;46.28;34.40;;;;;;;;;;5054440;28;20028;-78
2021/12/11 12:24:20;;;;;;;109.05;75.50;;;;;;;;;;5038124;28;20123;-80
2021/12/11 12:26:45;;;;;;;63.00;38.85;;;;;;;;;;5038080;28;20024;-80
2021/12/11 12:29:14;;;;;;;35.75;22.58;;;;;;;;;;5037545;28;20029;-80
2021/12/11 12:31:42;;;;;;;130.55;79.15;;;;;;;;;;5056887;28;20113;-81
2021/12/11 12:34:09;;;;;;;93.95;57.45;;;;;;;;;;5053543;28;20073;-81
2021/12/11 12:36:34;;;;;;;85.25;53.38;;;;;;;;;;5056371;28;20103;-80
2021/12/11 12:39:00;;;;;;;66.63;39.70;;;;;;;;;;5037414;28;20186;-78
2021/12/11 12:41:31;;;;;;;38.13;25.02;;;;;;;;;;5038853;28;20020;-78
2021/12/11 12:46:35;;;;;;;64.13;35.97;;;;;;;;;;5076592;28;20027;-80
2021/12/11 12:49:00;;;;;;;53.25;34.60;;;;;;;;;;5076213;28;20055;-78
2021/12/11 12:51:27;;;;;;;48.60;28.77;;;;;;;;;;5076422;28;20067;-79
2021/12/11 12:53:52;;;;;;;59.00;34.05;;;;;;;;;;5076646;28;20055;-78
2021/12/11 12:56:23;;;;;;;34.22;20.73;;;;;;;;;;5057647;28;20056;-77
2021/12/11 12:58:54;;;;;;;61.15;34.20;;;;;;;;;;5057384;28;20479;-78
2021/12/11 13:01:25;;;;;;;47.15;25.35;;;;;;;;;;5058203;28;20494;-79
2021/12/11 13:03:52;;;;;;;33.30;19.67;;;;;;;;;;5074295;28;20028;-79
2021/12/11 13:06:19;;;;;;;74.50;45.50;;;;;;;;;;5058094;28;20024;-78
2021/12/11 13:08:49;;;;;;;71.07;38.35;;;;;;;;;;5075894;28;20023;-80
2021/12/11 13:11:18;;;;;;;45.80;22.52;;;;;;;;;;5057638;28;20116;-79
2021/12/11 13:13:44;;;;;;;32.80;17.77;;;;;;;;;;5077294;28;20059;-79
2021/12/11 13:16:11;;;;;;;22.10;13.77;;;;;;;;;;5057596;28;20291;-77
2021/12/11 13:18:40;;;;;;;32.97;16.70;;;;;;;;;;5061990;28;20483;-78
2021/12/11 13:21:05;;;;;;;117.65;56.10;;;;;;;;;;5036341;28;20068;-79
2021/12/11 13:23:32;;;;;;;47.83;23.38;;;;;;;;;;5036771;28;20020;-79
2021/12/11 13:25:59;;;;;;;18.88;9.73;;;;;;;;;;5043702;28;20016;-77
2021/12/11 13:28:26;;;;;;;16.83;10.23;;;;;;;;;;5053515;28;20031;-77
2021/12/11 13:30:55;;;;;;;17.02;10.30;;;;;;;;;;5051935;28;20031;-78
2021/12/11 13:33:22;;;;;;;13.37;7.77;;;;;;;;;;5053415;28;20048;-78
2021/12/11 13:35:48;;;;;;;30.55;16.52;;;;;;;;;;5053484;28;20050;-77
2021/12/11 13:38:15;;;;;;;26.92;14.82;;;;;;;;;;5052710;28;20020;-78
2021/12/11 13:40:43;;;;;;;34.03;17.65;;;;;;;;;;5054490;28;20399;-78
2021/12/11 13:43:09;;;;;;;26.42;14.23;;;;;;;;;;5055858;28;20059;-78
2021/12/11 13:45:36;;;;;;;54.05;28.13;;;;;;;;;;5053641;28;20063;-77
2021/12/11 13:48:03;;;;;;;19.40;10.32;;;;;;;;;;5054809;28;20032;-78
2021/12/11 13:50:30;;;;;;;22.35;12.13;;;;;;;;;;5055329;28;20120;-78
2021/12/11 13:52:56;;;;;;;29.33;14.63;;;;;;;;;;5052217;28;20032;-78
2021/12/11 13:55:22;;;;;;;22.13;12.05;;;;;;;;;;5055736;28;20017;-77
2021/12/11 13:57:47;;;;;;;26.77;14.88;;;;;;;;;;5055530;28;20502;-77
2021/12/11 14:00:18;;;;;;;30.48;17.75;;;;;;;;;;5053859;28;20039;-77
2021/12/11 14:02:43;;;;;;;90.53;43.60;;;;;;;;;;5054630;28;20020;-77
2021/12/11 14:05:09;;;;;;;42.58;23.20;;;;;;;;;;5054429;28;20516;-78
2021/12/11 14:07:38;;;;;;;44.78;24.95;;;;;;;;;;5054156;28;20025;-77
2021/12/11 14:10:30;;;;;;;51.63;26.23;;;;;;;;;;5053415;28;20375;-77
2021/12/11 14:12:56;;;;;;;71.13;37.25;;;;;;;;;;5070272;28;20025;-77
2021/12/11 14:15:22;;;;;;;20.85;11.18;;;;;;;;;;5053397;28;20086;-77
2021/12/11 14:17:47;;;;;;;33.45;18.50;;;;;;;;;;5038853;28;20025;-77
2021/12/11 14:20:14;;;;;;;16.15;10.10;;;;;;;;;;5034030;28;20028;-77
2021/12/11 14:22:39;;;;;;;27.80;15.02;;;;;;;;;;5049531;28;20033;-77
2021/12/11 14:25:07;;;;;;;13.98;7.07;;;;;;;;;;5033450;28;20032;-78
2021/12/11 14:27:33;;;;;;;12.00;7.93;;;;;;;;;;5033110;28;20021;-77
2021/12/11 14:29:58;;;;;;;12.60;7.60;;;;;;;;;;5031445;28;20028;-78
2021/12/11 14:32:26;;;;;;;50.15;28.52;;;;;;;;;;5033101;28;20025;-78
2021/12/11 14:34:52;;;;;;;24.48;13.95;;;;;;;;;;5032623;28;20064;-77